createdAt,value
2023-04-13T00:00:11.262Z,2.42
2023-04-13T00:02:41.668Z,2.55
2023-04-13T00:05:10.740Z,2.00
2023-04-13T00:07:38.612Z,2.40
2023-04-13T00:10:08.597Z,1.98
2023-04-13T00:12:40.912Z,2.00
2023-04-13T00:15:08.872Z,1.90
2023-04-13T00:17:35.574Z,1.90
2023-04-13T00:20:08.215Z,2.30
2023-04-13T00:22:34.789Z,2.22
2023-04-13T00:25:01.490Z,1.90
2023-04-13T00:27:28.049Z,2.65
2023-04-13T00:29:57.746Z,2.35
2023-04-13T00:32:25.724Z,2.40
2023-04-13T00:34:53.017Z,2.05
2023-04-13T00:37:21.482Z,2.13
2023-04-13T00:39:48.114Z,2.45
2023-04-13T00:42:17.995Z,2.17
2023-04-13T00:44:44.597Z,2.50
2023-04-13T00:47:12.107Z,2.50
2023-04-13T00:49:38.799Z,2.85
2023-04-13T00:52:08.551Z,2.50
2023-04-13T00:54:35.586Z,2.67
2023-04-13T00:57:02.213Z,3.20
2023-04-13T00:59:30.155Z,2.78
2023-04-13T01:01:56.916Z,4.18
2023-04-13T01:04:25.599Z,3.20
2023-04-13T01:07:07.779Z,3.58
2023-04-13T01:09:47.895Z,3.20
2023-04-13T01:12:26.816Z,3.15
2023-04-13T01:15:02.083Z,2.92
2023-04-13T01:17:33.619Z,2.83
2023-04-13T01:20:01.926Z,3.05
2023-04-13T01:22:35.592Z,3.38
2023-04-13T01:25:30.881Z,3.15
2023-04-13T01:28:00.319Z,3.78
2023-04-13T01:30:28.439Z,3.42
2023-04-13T01:32:55.994Z,3.20
2023-04-13T01:35:23.261Z,3.55
2023-04-13T01:37:52.773Z,3.40
2023-04-13T01:40:21.005Z,3.13
2023-04-13T01:42:47.806Z,3.05
2023-04-13T01:45:27.896Z,3.88
2023-04-13T01:48:19.160Z,3.03
2023-04-13T01:50:51.946Z,3.50
2023-04-13T01:53:24.584Z,3.28
2023-04-13T01:55:51.485Z,2.90
2023-04-13T01:58:20.542Z,2.88
2023-04-13T02:00:47.940Z,3.00
2023-04-13T02:03:15.729Z,3.47
2023-04-13T02:05:42.403Z,3.10
2023-04-13T02:08:09.641Z,3.17
2023-04-13T02:10:37.470Z,3.13
2023-04-13T02:13:04.314Z,3.45
2023-04-13T02:15:40.135Z,3.15
2023-04-13T02:18:07.748Z,3.08
2023-04-13T02:20:43.888Z,4.10
2023-04-13T02:23:11.916Z,4.28
2023-04-13T02:25:38.749Z,5.22
2023-04-13T02:28:05.404Z,4.82
2023-04-13T02:30:32.018Z,4.38
2023-04-13T02:32:58.676Z,4.60
2023-04-13T02:35:25.684Z,4.65
2023-04-13T02:37:52.414Z,5.25
2023-04-13T02:40:19.475Z,4.78
2023-04-13T02:42:46.298Z,5.55
2023-04-13T02:45:14.449Z,4.65
2023-04-13T02:47:41.056Z,5.18
2023-04-13T02:50:08.299Z,5.53
2023-04-13T02:52:34.892Z,4.28
2023-04-13T02:55:01.488Z,5.47
2023-04-13T02:57:28.021Z,5.05
2023-04-13T02:59:54.588Z,5.45
2023-04-13T03:02:21.566Z,4.80
2023-04-13T03:04:48.710Z,5.60
2023-04-13T03:07:17.097Z,5.13
2023-04-13T03:09:44.637Z,5.05
2023-04-13T03:12:11.268Z,5.60
2023-04-13T03:14:37.867Z,5.10
2023-04-13T03:17:05.187Z,5.20
2023-04-13T03:19:32.027Z,5.07
2023-04-13T03:21:58.808Z,5.25
2023-04-13T03:24:28.864Z,5.10
2023-04-13T03:26:56.984Z,5.50
2023-04-13T03:29:26.363Z,5.25
2023-04-13T03:31:52.993Z,4.47
2023-04-13T03:34:19.552Z,5.25
2023-04-13T03:36:46.506Z,5.07
2023-04-13T03:39:13.226Z,4.55
2023-04-13T03:41:40.148Z,4.50
2023-04-13T03:44:08.352Z,4.63
2023-04-13T03:46:39.226Z,4.72
2023-04-13T03:49:08.584Z,3.72
2023-04-13T03:51:36.112Z,4.55
2023-04-13T03:54:03.078Z,4.43
2023-04-13T03:56:30.737Z,5.57
2023-04-13T03:58:57.871Z,4.47
2023-04-13T04:01:24.584Z,4.70
2023-04-13T04:03:53.514Z,4.60
2023-04-13T04:06:20.632Z,4.55
2023-04-13T04:08:49.593Z,5.32
2023-04-13T04:11:17.011Z,5.07
2023-04-13T04:13:43.661Z,5.50
2023-04-13T04:16:13.102Z,4.40
2023-04-13T04:18:40.045Z,4.28
2023-04-13T04:21:07.352Z,4.90
2023-04-13T04:23:37.828Z,4.65
2023-04-13T04:26:05.077Z,4.85
2023-04-13T04:28:32.096Z,5.05
2023-04-13T04:31:01.032Z,6.45
2023-04-13T04:33:27.728Z,5.68
2023-04-13T04:35:56.004Z,5.53
2023-04-13T04:38:23.446Z,4.70
2023-04-13T04:40:50.784Z,5.55
2023-04-13T04:43:19.007Z,5.28
2023-04-13T04:45:46.994Z,5.30
2023-04-13T04:48:14.744Z,4.97
2023-04-13T04:50:44.825Z,5.07
2023-04-13T04:53:12.878Z,4.95
2023-04-13T04:55:39.693Z,4.80
2023-04-13T04:58:06.606Z,5.28
2023-04-13T05:00:33.144Z,5.18
2023-04-13T05:03:01.002Z,4.43
2023-04-13T05:05:30.557Z,5.15
2023-04-13T05:07:57.554Z,5.20
2023-04-13T05:10:26.835Z,4.90
2023-04-13T05:12:53.556Z,5.10
2023-04-13T05:15:20.241Z,4.18
2023-04-13T05:17:47.332Z,4.97
2023-04-13T05:20:13.987Z,4.82
2023-04-13T05:22:43.592Z,4.70
2023-04-13T05:25:10.805Z,4.82
2023-04-13T05:27:38.009Z,5.18
2023-04-13T05:30:07.781Z,4.93
2023-04-13T05:32:35.000Z,5.30
2023-04-13T05:35:01.838Z,4.70
2023-04-13T05:37:28.470Z,5.32
2023-04-13T05:39:57.344Z,5.00
2023-04-13T05:42:24.852Z,4.47
2023-04-13T05:44:51.626Z,5.22
2023-04-13T05:47:23.597Z,4.65
2023-04-13T05:49:50.740Z,4.80
2023-04-13T05:52:17.373Z,4.72
2023-04-13T05:54:43.945Z,5.13
2023-04-13T05:57:10.749Z,4.88
2023-04-13T05:59:37.492Z,4.60
2023-04-13T06:02:04.849Z,4.63
2023-04-13T06:04:33.815Z,4.65
2023-04-13T06:07:00.919Z,4.70
2023-04-13T06:09:28.402Z,4.53
2023-04-13T06:11:55.207Z,5.38
2023-04-13T06:14:22.256Z,4.70
2023-04-13T06:16:48.914Z,3.70
2023-04-13T06:19:15.532Z,4.22
2023-04-13T06:21:42.593Z,4.00
2023-04-13T06:24:09.595Z,3.85
2023-04-13T06:26:36.246Z,4.03
2023-04-13T06:29:02.918Z,3.45
2023-04-13T06:31:29.751Z,3.50
2023-04-13T06:33:57.500Z,2.83
2023-04-13T06:36:24.225Z,3.58
2023-04-13T06:38:50.798Z,2.85
2023-04-13T06:41:17.338Z,2.88
2023-04-13T06:43:43.928Z,2.53
2023-04-13T06:46:11.633Z,2.47
2023-04-13T06:48:38.241Z,2.72
2023-04-13T06:51:04.943Z,3.22
2023-04-13T06:53:31.578Z,2.28
2023-04-13T06:55:58.192Z,2.38
2023-04-13T06:58:27.119Z,2.65
2023-04-13T07:00:53.752Z,2.85
2023-04-13T07:03:22.521Z,2.08
2023-04-13T07:05:49.260Z,2.42
2023-04-13T07:08:16.680Z,2.67
2023-04-13T07:10:43.253Z,3.05
2023-04-13T07:13:09.773Z,2.20
2023-04-13T07:15:37.690Z,2.10
2023-04-13T07:18:04.745Z,2.33
2023-04-13T07:20:31.462Z,2.33
2023-04-13T07:22:58.198Z,2.20
2023-04-13T07:25:24.862Z,2.65
2023-04-13T07:27:51.435Z,2.40
2023-04-13T07:30:19.952Z,2.42
2023-04-13T07:32:46.599Z,2.08
2023-04-13T07:35:13.282Z,2.35
2023-04-13T07:37:42.142Z,1.80
2023-04-13T07:40:09.354Z,2.35
2023-04-13T07:42:36.120Z,1.90
2023-04-13T07:45:02.801Z,1.40
2023-04-13T07:47:29.601Z,1.48
2023-04-13T07:49:56.527Z,1.45
2023-04-13T07:52:23.114Z,2.10
2023-04-13T07:54:49.788Z,1.40
2023-04-13T07:57:21.827Z,1.40
2023-04-13T07:59:48.372Z,1.27
2023-04-13T08:02:18.567Z,1.30
2023-04-13T08:04:45.344Z,1.35
2023-04-13T08:07:12.086Z,1.13
2023-04-13T08:09:42.623Z,1.30
2023-04-13T08:12:09.509Z,1.33
2023-04-13T08:14:36.622Z,1.10
2023-04-13T08:17:04.895Z,1.20
2023-04-13T08:19:32.451Z,1.15
2023-04-13T08:21:59.531Z,1.00
2023-04-13T08:24:26.674Z,0.88
2023-04-13T08:27:00.019Z,1.02
2023-04-13T08:29:27.649Z,1.35
2023-04-13T08:31:54.432Z,0.77
2023-04-13T08:34:22.111Z,0.82
2023-04-13T08:36:49.365Z,1.25
2023-04-13T08:39:16.453Z,1.30
2023-04-13T08:41:45.711Z,0.98
2023-04-13T08:44:13.592Z,0.75
2023-04-13T08:46:44.904Z,1.30
2023-04-13T08:49:12.364Z,0.90
2023-04-13T08:51:43.709Z,1.10
2023-04-13T08:54:12.750Z,1.08
2023-04-13T08:56:46.024Z,1.15
2023-04-13T08:59:15.873Z,1.17
2023-04-13T09:01:45.307Z,1.33
2023-04-13T09:04:14.032Z,1.33
2023-04-13T09:06:43.100Z,1.27
2023-04-13T09:09:17.986Z,1.20
2023-04-13T09:11:45.709Z,0.90
2023-04-13T09:14:12.561Z,1.30
2023-04-13T09:16:42.427Z,1.02
2023-04-13T09:19:09.756Z,1.25
2023-04-13T09:21:41.337Z,1.00
2023-04-13T09:24:08.505Z,1.10
2023-04-13T09:26:48.765Z,1.10
2023-04-13T09:29:21.793Z,0.90
2023-04-13T09:31:49.902Z,0.90
2023-04-13T09:34:29.088Z,1.25
2023-04-13T09:36:58.105Z,1.10
2023-04-13T09:39:31.137Z,1.08
2023-04-13T09:42:09.674Z,1.05
2023-04-13T09:44:36.326Z,1.17
2023-04-13T09:47:04.401Z,1.27
2023-04-13T09:49:43.761Z,1.25
2023-04-13T09:52:23.160Z,1.00
2023-04-13T09:54:55.541Z,1.25
2023-04-13T09:57:29.972Z,1.30
2023-04-13T10:00:00.485Z,1.27
2023-04-13T10:02:27.791Z,1.40
2023-04-13T10:04:54.716Z,1.52
2023-04-13T10:07:26.511Z,1.23
2023-04-13T10:09:53.992Z,1.63
2023-04-13T10:12:20.662Z,1.58
2023-04-13T10:14:49.131Z,1.45
2023-04-13T10:17:35.993Z,1.00
2023-04-13T10:20:14.211Z,1.10
2023-04-13T10:22:47.321Z,1.20
2023-04-13T10:25:25.663Z,1.38
2023-04-13T10:27:59.777Z,1.20
2023-04-13T10:30:28.145Z,1.48
2023-04-13T10:33:09.771Z,1.15
2023-04-13T10:35:38.221Z,1.27
2023-04-13T10:38:05.596Z,1.20
2023-04-13T10:40:46.076Z,1.23
2023-04-13T10:43:12.868Z,1.60
2023-04-13T10:45:39.489Z,1.52
2023-04-13T10:48:07.532Z,1.73
2023-04-13T10:50:34.472Z,1.15
2023-04-13T10:53:04.906Z,1.70
2023-04-13T10:55:32.646Z,1.35
2023-04-13T10:58:01.748Z,1.50
2023-04-13T11:00:45.511Z,1.40
2023-04-13T11:03:16.416Z,1.60
2023-04-13T11:05:44.827Z,1.58
2023-04-13T11:08:18.865Z,1.50
2023-04-13T11:10:55.465Z,1.35
2023-04-13T11:13:25.197Z,1.63
2023-04-13T11:15:52.110Z,1.50
2023-04-13T11:18:26.394Z,1.48
2023-04-13T11:20:53.340Z,1.33
2023-04-13T11:23:25.566Z,1.60
2023-04-13T11:26:02.957Z,1.50
2023-04-13T11:28:41.665Z,1.30
2023-04-13T11:31:08.747Z,1.33
2023-04-13T11:33:37.790Z,1.42
2023-04-13T11:36:06.764Z,1.63
2023-04-13T11:38:33.380Z,1.52
2023-04-13T11:41:15.875Z,1.20
2023-04-13T11:43:45.909Z,1.20
2023-04-13T11:46:14.474Z,1.15
2023-04-13T11:48:41.354Z,1.10
2023-04-13T11:51:08.774Z,1.17
2023-04-13T11:53:38.579Z,1.55
2023-04-13T11:56:05.535Z,1.58
2023-04-13T11:58:32.238Z,1.50
2023-04-13T12:01:03.313Z,1.20
2023-04-13T12:03:47.085Z,1.10
2023-04-13T12:06:20.904Z,1.10
2023-04-13T12:08:52.391Z,1.50
2023-04-13T12:14:07.154Z,1.42
2023-04-13T12:19:11.197Z,1.30
2023-04-13T12:21:52.816Z,1.65
2023-04-13T12:24:20.927Z,1.25
2023-04-13T12:29:17.026Z,1.50
2023-04-13T12:31:45.475Z,1.63
2023-04-13T12:34:14.029Z,1.63
2023-04-13T12:36:41.166Z,1.30
2023-04-13T12:39:08.049Z,1.38
2023-04-13T12:41:35.710Z,1.60
2023-04-13T12:44:03.727Z,1.50
2023-04-13T12:46:30.488Z,1.70
2023-04-13T12:48:57.169Z,1.48
2023-04-13T12:51:23.901Z,1.30
2023-04-13T12:53:50.699Z,1.70
2023-04-13T12:56:17.308Z,1.58
2023-04-13T12:58:44.105Z,2.25
2023-04-13T13:01:11.227Z,1.42
2023-04-13T13:03:37.971Z,1.90
2023-04-13T13:06:09.151Z,2.10
2023-04-13T13:08:39.264Z,1.70
2023-04-13T13:11:10.933Z,1.73
2023-04-13T13:13:37.647Z,1.92
2023-04-13T13:16:06.757Z,1.92
2023-04-13T13:18:49.184Z,2.20
2023-04-13T13:21:18.681Z,2.13
2023-04-13T13:23:45.663Z,1.90
2023-04-13T13:26:23.995Z,1.83
2023-04-13T13:28:51.928Z,1.90
2023-04-13T13:31:18.988Z,2.05
2023-04-13T13:33:45.889Z,1.60
2023-04-13T13:36:13.871Z,1.90
2023-04-13T13:38:42.532Z,2.10
2023-04-13T13:41:09.095Z,2.08
2023-04-13T13:43:35.862Z,2.05
2023-04-13T13:46:03.999Z,2.35
2023-04-13T13:48:30.852Z,1.98
2023-04-13T13:50:57.479Z,1.90
2023-04-13T13:53:24.206Z,2.05
2023-04-13T13:55:51.011Z,1.67
2023-04-13T13:58:17.681Z,1.60
2023-04-13T14:00:44.704Z,1.63
2023-04-13T14:03:13.554Z,1.88
2023-04-13T14:05:40.409Z,2.00
2023-04-13T14:08:10.172Z,1.80
2023-04-13T14:10:36.915Z,1.70
2023-04-13T14:13:03.477Z,1.58
2023-04-13T14:15:31.477Z,1.63
2023-04-13T14:18:09.960Z,1.95
2023-04-13T14:20:40.787Z,1.77
2023-04-13T14:23:09.116Z,1.70
2023-04-13T14:25:36.722Z,1.38
2023-04-13T14:28:03.491Z,0.68
2023-04-13T14:30:30.220Z,0.65
2023-04-13T14:32:57.215Z,0.70
2023-04-13T14:35:27.701Z,0.43
2023-04-13T14:37:56.260Z,0.70
2023-04-13T14:40:24.177Z,0.60
2023-04-13T14:42:54.096Z,0.47
2023-04-13T14:45:21.079Z,0.40
2023-04-13T14:47:47.805Z,0.30
2023-04-13T14:50:15.710Z,0.40
2023-04-13T14:52:46.547Z,0.40
2023-04-13T14:55:14.289Z,0.28
2023-04-13T14:57:45.588Z,0.17
2023-04-13T15:00:25.834Z,0.50
2023-04-13T15:02:53.423Z,0.50
2023-04-13T15:05:20.601Z,0.57
2023-04-13T15:07:49.743Z,0.55
2023-04-13T15:10:16.935Z,0.57
2023-04-13T15:12:43.592Z,0.60
2023-04-13T15:15:10.769Z,0.52
2023-04-13T15:17:37.704Z,0.60
2023-04-13T15:20:07.268Z,0.57
2023-04-13T15:22:35.849Z,0.55
2023-04-13T15:25:02.672Z,1.40
2023-04-13T15:27:30.888Z,0.68
2023-04-13T15:29:59.937Z,0.52
2023-04-13T15:32:26.744Z,0.60
2023-04-13T15:34:56.167Z,0.50
2023-04-13T15:37:26.036Z,0.50
2023-04-13T15:39:53.772Z,0.63
2023-04-13T15:42:21.293Z,0.80
2023-04-13T15:44:50.751Z,0.60
2023-04-13T15:47:17.282Z,0.80
2023-04-13T15:49:45.854Z,0.70
2023-04-13T15:52:12.395Z,0.68
2023-04-13T15:54:38.936Z,0.70
2023-04-13T15:57:10.004Z,1.00
2023-04-13T15:59:36.585Z,0.60
2023-04-13T16:02:03.359Z,0.90
2023-04-13T16:04:30.996Z,0.82
2023-04-13T16:07:11.737Z,0.75
2023-04-13T16:09:39.960Z,0.70
2023-04-13T16:12:10.708Z,0.90
2023-04-13T16:14:42.250Z,0.50
2023-04-13T16:17:09.434Z,0.63
2023-04-13T16:19:36.635Z,0.80
2023-04-13T16:22:10.407Z,0.70
2023-04-13T16:24:37.771Z,0.70
2023-04-13T16:27:04.518Z,0.63
2023-04-13T16:29:33.453Z,0.52
2023-04-13T16:32:02.307Z,0.50
2023-04-13T16:34:29.235Z,0.63
2023-04-13T16:36:56.368Z,0.60
2023-04-13T16:39:23.049Z,0.63
2023-04-13T16:41:52.548Z,0.55
2023-04-13T16:44:19.180Z,0.50
2023-04-13T16:46:47.290Z,0.30
2023-04-13T16:49:14.037Z,0.20
2023-04-13T16:51:40.694Z,0.20
2023-04-13T16:54:07.467Z,0.20
2023-04-13T16:56:34.020Z,0.20
2023-04-13T16:59:02.757Z,0.30
2023-04-13T17:01:30.954Z,0.20
2023-04-13T17:03:57.810Z,0.10
2023-04-13T17:06:24.530Z,0.40
2023-04-13T17:08:51.162Z,0.10
2023-04-13T17:11:17.743Z,0.25
2023-04-13T17:13:44.390Z,0.10
2023-04-13T17:16:13.815Z,0.10
2023-04-13T17:18:40.678Z,0.20
2023-04-13T17:21:07.380Z,0.20
2023-04-13T17:23:34.060Z,0.75
2023-04-13T17:26:00.728Z,0.47
2023-04-13T17:28:27.429Z,0.20
2023-04-13T17:30:54.408Z,0.40
2023-04-13T17:33:23.388Z,0.50
2023-04-13T17:35:56.148Z,0.50
2023-04-13T17:38:23.124Z,0.30
2023-04-13T17:40:50.915Z,0.20
2023-04-13T17:43:18.209Z,0.73
2023-04-13T17:45:45.144Z,0.32
2023-04-13T17:48:11.773Z,0.15
2023-04-13T17:50:38.423Z,0.47
2023-04-13T17:53:07.178Z,0.43
2023-04-13T17:55:36.471Z,0.38
2023-04-13T17:58:03.163Z,0.30
2023-04-13T18:00:31.805Z,0.50
2023-04-13T18:02:58.567Z,0.20
2023-04-13T18:05:26.564Z,0.40
2023-04-13T18:07:55.828Z,0.35
2023-04-13T18:10:26.384Z,0.45
2023-04-13T18:12:52.958Z,0.60
2023-04-13T18:15:21.892Z,0.80
2023-04-13T18:17:48.554Z,1.50
2023-04-13T18:20:18.625Z,0.82
2023-04-13T18:22:45.378Z,0.88
2023-04-13T18:25:12.190Z,1.00
2023-04-13T18:27:38.881Z,0.88
2023-04-13T18:30:06.560Z,0.68
2023-04-13T18:32:33.194Z,0.63
2023-04-13T18:34:59.812Z,0.80
2023-04-13T18:37:28.588Z,0.80
2023-04-13T18:39:57.568Z,0.68
2023-04-13T18:42:24.204Z,0.50
2023-04-13T18:44:50.806Z,0.47
2023-04-13T18:47:20.724Z,0.75
2023-04-13T18:49:47.714Z,0.65
2023-04-13T18:52:14.412Z,0.80
2023-04-13T18:54:41.027Z,0.80
2023-04-13T18:57:07.712Z,0.60
2023-04-13T18:59:36.026Z,0.90
2023-04-13T19:02:07.906Z,0.80
2023-04-13T19:04:35.552Z,0.60
2023-04-13T19:07:02.339Z,0.60
2023-04-13T19:09:29.103Z,0.50
2023-04-13T19:12:00.991Z,0.50
2023-04-13T19:14:28.873Z,0.50
2023-04-13T19:16:55.629Z,0.13
2023-04-13T19:19:22.463Z,0.63
2023-04-13T19:21:56.287Z,0.47
2023-04-13T19:24:23.432Z,0.30
2023-04-13T19:26:50.339Z,0.73
2023-04-13T19:29:17.368Z,0.70
2023-04-13T19:31:47.198Z,0.70
2023-04-13T19:34:13.878Z,0.65
2023-04-13T19:36:41.082Z,1.00
2023-04-13T19:39:08.591Z,0.70
2023-04-13T19:41:37.294Z,1.23
2023-04-13T19:44:05.402Z,1.33
2023-04-13T19:46:34.828Z,1.50
2023-04-13T19:49:02.003Z,1.58
2023-04-13T19:51:32.756Z,1.40
2023-04-13T19:54:01.822Z,1.17
2023-04-13T19:56:34.451Z,1.25
2023-04-13T19:59:02.690Z,1.67
2023-04-13T20:01:33.116Z,1.20
2023-04-13T20:04:01.320Z,1.30
2023-04-13T20:06:28.249Z,1.42
2023-04-13T20:08:54.853Z,1.60
2023-04-13T20:11:21.865Z,1.38
2023-04-13T20:13:48.441Z,3.13
2023-04-13T20:16:15.502Z,3.35
2023-04-13T20:18:43.654Z,2.30
2023-04-13T20:21:10.629Z,2.17
2023-04-13T20:23:37.556Z,1.92
2023-04-13T20:26:05.232Z,1.92
2023-04-13T20:28:33.241Z,1.60
2023-04-13T20:30:59.869Z,1.55
2023-04-13T20:33:26.513Z,1.27
2023-04-13T20:35:54.718Z,1.67
2023-04-13T20:38:21.651Z,1.65
2023-04-13T20:40:48.339Z,2.10
2023-04-13T20:43:20.442Z,1.83
2023-04-13T20:45:47.096Z,1.67
2023-04-13T20:50:47.723Z,1.83
2023-04-13T20:53:16.488Z,1.98
2023-04-13T20:55:43.155Z,1.77
2023-04-13T20:58:10.625Z,2.40
2023-04-13T21:00:40.067Z,2.03
2023-04-13T21:03:09.028Z,1.83
2023-04-13T21:05:36.164Z,2.30
2023-04-13T21:08:02.888Z,1.77
2023-04-13T21:10:29.414Z,1.70
2023-04-13T21:12:56.040Z,2.15
2023-04-13T21:15:22.841Z,1.70
2023-04-13T21:17:49.472Z,1.60
2023-04-13T21:20:16.307Z,1.70
2023-04-13T21:22:42.997Z,2.03
2023-04-13T21:25:09.770Z,2.40
2023-04-13T21:27:36.377Z,2.17
2023-04-13T21:30:03.331Z,1.80
2023-04-13T21:32:30.097Z,2.13
2023-04-13T21:34:57.494Z,2.00
2023-04-13T21:37:24.121Z,1.80
2023-04-13T21:39:50.960Z,2.00
2023-04-13T21:42:17.577Z,2.20
2023-04-13T21:44:44.216Z,2.05
2023-04-13T21:47:10.805Z,2.28
2023-04-13T21:49:37.402Z,2.13
2023-04-13T21:52:04.057Z,1.98
2023-04-13T21:54:30.671Z,2.08
2023-04-13T21:56:57.221Z,2.05
2023-04-13T21:59:27.124Z,1.92
2023-04-13T22:01:54.814Z,1.83
2023-04-13T22:04:21.650Z,1.90
2023-04-13T22:06:48.465Z,1.95
2023-04-13T22:09:15.043Z,1.75
2023-04-13T22:11:41.787Z,2.58
2023-04-13T22:14:08.673Z,2.20
2023-04-13T22:16:35.515Z,2.67
2023-04-13T22:19:02.224Z,2.30
2023-04-13T22:21:29.221Z,2.03
2023-04-13T22:23:55.804Z,2.20
2023-04-13T22:26:24.030Z,1.90
2023-04-13T22:28:50.612Z,2.35
2023-04-13T22:31:17.190Z,2.20
2023-04-13T22:33:43.774Z,2.17
2023-04-13T22:36:19.486Z,1.77
2023-04-13T22:38:46.892Z,2.13
2023-04-13T22:41:13.547Z,1.83
2023-04-13T22:43:40.342Z,1.90
2023-04-13T22:46:07.765Z,1.88
2023-04-13T22:48:34.467Z,2.00
2023-04-13T22:51:01.330Z,1.80
2023-04-13T22:53:28.116Z,1.88
2023-04-13T22:55:54.817Z,2.50
2023-04-13T22:58:21.474Z,2.15
2023-04-13T23:00:48.202Z,2.13
2023-04-13T23:03:15.105Z,2.10
2023-04-13T23:05:41.782Z,2.20
2023-04-13T23:08:08.759Z,1.90
2023-04-13T23:10:35.367Z,1.90
2023-04-13T23:13:01.935Z,2.00
2023-04-13T23:15:28.542Z,1.95
2023-04-13T23:17:55.710Z,2.60
2023-04-13T23:20:23.288Z,2.15
2023-04-13T23:22:50.221Z,2.35
2023-04-13T23:25:17.610Z,1.80
2023-04-13T23:27:44.345Z,2.22
2023-04-13T23:30:11.406Z,2.13
2023-04-13T23:32:38.233Z,1.75
2023-04-13T23:35:05.600Z,1.90
2023-04-13T23:37:32.215Z,2.05
2023-04-13T23:39:58.931Z,2.30
2023-04-13T23:42:25.699Z,2.10
2023-04-13T23:44:52.275Z,2.55
2023-04-13T23:47:18.991Z,2.40
2023-04-13T23:49:46.751Z,2.70
2023-04-13T23:52:13.397Z,2.80
2023-04-13T23:54:40.056Z,2.28
2023-04-13T23:57:06.617Z,3.10
2023-04-13T23:59:33.235Z,2.90
